createdAt,value
2018-08-03T00:01:03.142Z,3.00
2018-08-03T00:03:30.531Z,3.27
2018-08-03T00:05:57.949Z,4.13
2018-08-03T00:08:25.385Z,3.43
2018-08-03T00:10:52.829Z,3.67
2018-08-03T00:13:20.248Z,3.87
2018-08-03T00:15:47.664Z,3.23
2018-08-03T00:18:15.126Z,3.00
2018-08-03T00:20:42.520Z,3.40
2018-08-03T00:23:09.941Z,3.73
2018-08-03T00:25:37.351Z,3.47
2018-08-03T00:28:04.837Z,4.00
2018-08-03T00:30:32.277Z,4.77
2018-08-03T00:32:59.734Z,4.50
2018-08-03T00:35:27.171Z,4.40
2018-08-03T00:37:54.593Z,4.80
2018-08-03T00:40:22.176Z,4.17
2018-08-03T00:42:49.660Z,3.13
2018-08-03T00:45:17.073Z,3.20
2018-08-03T00:47:44.499Z,4.13
2018-08-03T00:50:11.895Z,4.80
2018-08-03T00:52:39.298Z,4.10
2018-08-03T00:55:06.752Z,3.47
2018-08-03T00:57:34.165Z,3.57
2018-08-03T01:00:01.594Z,3.47
2018-08-03T01:02:29.003Z,3.40
2018-08-03T01:04:56.481Z,3.47
2018-08-03T01:07:23.868Z,3.47
2018-08-03T01:09:52.908Z,3.00
2018-08-03T01:12:20.348Z,3.67
2018-08-03T01:14:47.760Z,3.37
2018-08-03T01:17:15.178Z,3.50
2018-08-03T01:19:42.581Z,3.47
2018-08-03T01:22:10.002Z,3.40
2018-08-03T01:24:37.403Z,3.20
2018-08-03T01:27:04.982Z,3.50
2018-08-03T01:29:32.387Z,3.40
2018-08-03T01:31:59.793Z,3.17
2018-08-03T01:34:27.238Z,3.07
2018-08-03T01:36:54.619Z,2.90
2018-08-03T01:39:22.043Z,2.90
2018-08-03T01:41:49.469Z,3.10
2018-08-03T01:44:16.869Z,3.00
2018-08-03T01:46:44.300Z,3.50
2018-08-03T01:49:11.708Z,3.20
2018-08-03T01:51:39.126Z,3.80
2018-08-03T01:54:06.550Z,3.53
2018-08-03T01:56:33.949Z,3.63
2018-08-03T01:59:01.388Z,3.60
2018-08-03T02:01:28.785Z,3.57
2018-08-03T02:03:56.193Z,3.60
2018-08-03T02:06:26.079Z,3.43
2018-08-03T02:08:53.468Z,3.50
2018-08-03T02:11:20.885Z,3.77
2018-08-03T02:13:48.329Z,3.40
2018-08-03T02:16:15.725Z,3.67
2018-08-03T02:18:43.135Z,3.10
2018-08-03T02:21:10.556Z,3.60
2018-08-03T02:23:37.964Z,3.60
2018-08-03T02:26:05.433Z,3.70
2018-08-03T02:28:32.863Z,4.40
2018-08-03T02:31:00.291Z,4.17
2018-08-03T02:33:27.721Z,3.90
2018-08-03T02:35:55.120Z,4.17
2018-08-03T02:38:22.595Z,3.77
2018-08-03T02:40:50.037Z,4.10
2018-08-03T02:43:17.447Z,3.83
2018-08-03T02:45:44.869Z,3.70
2018-08-03T02:48:12.274Z,3.50
2018-08-03T02:50:39.661Z,3.77
2018-08-03T02:53:08.194Z,4.33
2018-08-03T02:55:35.600Z,4.03
2018-08-03T02:58:03.037Z,3.47
2018-08-03T03:00:30.480Z,3.40
2018-08-03T03:02:57.902Z,3.13
2018-08-03T03:05:25.341Z,3.00
2018-08-03T03:07:52.770Z,3.30
2018-08-03T03:10:20.169Z,3.50
2018-08-03T03:12:47.602Z,3.40
2018-08-03T03:15:15.235Z,3.83
2018-08-03T03:17:42.649Z,4.00
2018-08-03T03:20:10.092Z,3.67
2018-08-03T03:22:37.468Z,3.80
2018-08-03T03:25:05.058Z,3.63
2018-08-03T03:27:32.449Z,3.33
2018-08-03T03:29:59.889Z,3.30
2018-08-03T03:32:27.283Z,3.60
2018-08-03T03:34:54.657Z,3.20
2018-08-03T03:37:22.061Z,3.50
2018-08-03T03:39:49.472Z,3.53
2018-08-03T03:42:16.901Z,3.40
2018-08-03T03:44:44.338Z,3.43
2018-08-03T03:47:11.757Z,3.10
2018-08-03T03:49:39.196Z,3.40
2018-08-03T03:52:06.851Z,3.67
2018-08-03T03:54:34.292Z,3.30
2018-08-03T03:57:01.701Z,2.73
2018-08-03T03:59:29.081Z,3.30
2018-08-03T04:01:56.531Z,3.23
2018-08-03T04:04:23.933Z,3.20
2018-08-03T04:06:51.374Z,3.67
2018-08-03T04:09:18.781Z,3.50
2018-08-03T04:11:46.210Z,3.00
2018-08-03T04:14:13.587Z,3.10
2018-08-03T04:16:41.032Z,2.83
2018-08-03T04:19:08.444Z,2.13
2018-08-03T04:21:35.857Z,2.40
2018-08-03T04:24:03.309Z,2.33
2018-08-03T04:26:30.891Z,2.27
2018-08-03T04:28:58.468Z,2.30
2018-08-03T04:31:26.158Z,2.23
2018-08-03T04:33:53.552Z,2.43
2018-08-03T04:36:20.961Z,2.00
2018-08-03T04:38:48.387Z,2.00
2018-08-03T04:41:15.811Z,2.43
2018-08-03T04:43:43.256Z,2.23
2018-08-03T04:46:10.794Z,2.27
2018-08-03T04:48:38.242Z,2.20
2018-08-03T04:51:05.620Z,2.20
2018-08-03T04:53:33.046Z,2.40
2018-08-03T04:56:00.781Z,2.57
2018-08-03T04:58:28.170Z,2.60
2018-08-03T05:00:55.609Z,2.50
2018-08-03T05:03:23.031Z,2.60
2018-08-03T05:05:50.491Z,2.30
2018-08-03T05:08:17.982Z,2.60
2018-08-03T05:10:45.427Z,2.53
2018-08-03T05:13:13.082Z,2.30
2018-08-03T05:15:40.480Z,2.50
2018-08-03T05:18:08.197Z,2.67
2018-08-03T05:20:35.644Z,2.57
2018-08-03T05:23:03.038Z,2.87
2018-08-03T05:25:30.463Z,2.73
2018-08-03T05:27:57.840Z,2.10
2018-08-03T05:30:25.313Z,2.53
2018-08-03T05:32:52.707Z,2.50
2018-08-03T05:35:20.168Z,2.40
2018-08-03T05:37:47.569Z,2.43
2018-08-03T05:40:15.008Z,2.53
2018-08-03T05:42:42.384Z,2.60
2018-08-03T05:45:09.875Z,2.43
2018-08-03T05:47:37.289Z,2.53
2018-08-03T05:50:05.101Z,2.40
2018-08-03T05:52:32.584Z,2.10
2018-08-03T05:54:59.924Z,2.20
2018-08-03T05:57:27.373Z,2.30
2018-08-03T05:59:55.079Z,2.37
2018-08-03T06:02:22.539Z,2.10
2018-08-03T06:04:49.958Z,2.17
2018-08-03T06:07:17.382Z,2.07
2018-08-03T06:09:44.839Z,2.03
2018-08-03T06:12:12.225Z,2.10
2018-08-03T06:14:39.621Z,1.90
2018-08-03T06:17:07.309Z,2.00
2018-08-03T06:19:34.712Z,1.70
2018-08-03T06:22:02.103Z,1.83
2018-08-03T06:24:30.175Z,1.90
2018-08-03T06:26:57.566Z,1.70
2018-08-03T06:29:24.972Z,1.53
2018-08-03T06:31:52.371Z,2.10
2018-08-03T06:34:19.810Z,1.90
2018-08-03T06:36:47.218Z,2.20
2018-08-03T06:39:14.621Z,1.90
2018-08-03T06:41:42.609Z,2.00
2018-08-03T06:44:10.037Z,2.17
2018-08-03T06:46:37.537Z,2.40
2018-08-03T06:49:04.950Z,1.80
2018-08-03T06:51:32.418Z,2.00
2018-08-03T06:53:59.857Z,2.10
2018-08-03T06:56:27.485Z,1.97
2018-08-03T06:58:54.944Z,1.80
2018-08-03T07:01:22.336Z,2.40
2018-08-03T07:03:49.773Z,2.73
2018-08-03T07:06:17.205Z,2.80
2018-08-03T07:08:44.630Z,2.67
2018-08-03T07:11:12.027Z,2.73
2018-08-03T07:13:39.473Z,2.93
2018-08-03T07:16:06.909Z,2.70
2018-08-03T07:18:34.319Z,2.20
2018-08-03T07:21:01.728Z,2.50
2018-08-03T07:23:29.159Z,2.03
2018-08-03T07:25:56.592Z,2.27
2018-08-03T07:28:23.988Z,2.70
2018-08-03T07:30:51.393Z,2.40
2018-08-03T07:33:18.783Z,2.23
2018-08-03T07:35:46.181Z,2.10
2018-08-03T07:38:13.611Z,2.43
2018-08-03T07:40:41.089Z,2.40
2018-08-03T07:43:08.533Z,2.00
2018-08-03T07:45:35.924Z,2.00
2018-08-03T07:48:03.398Z,2.07
2018-08-03T07:50:30.797Z,2.50
2018-08-03T07:52:58.206Z,2.33
2018-08-03T07:55:25.653Z,2.13
2018-08-03T07:57:53.524Z,2.53
2018-08-03T08:00:21.029Z,2.60
2018-08-03T08:02:48.507Z,2.00
2018-08-03T08:05:15.942Z,2.10
2018-08-03T08:07:44.275Z,2.37
2018-08-03T08:10:11.705Z,2.20
2018-08-03T08:12:39.162Z,2.37
2018-08-03T08:15:06.615Z,2.30
2018-08-03T08:17:34.010Z,2.57
2018-08-03T08:20:01.435Z,2.13
2018-08-03T08:22:28.820Z,2.20
2018-08-03T08:24:56.807Z,2.13
2018-08-03T08:27:24.538Z,1.90
2018-08-03T08:29:51.966Z,2.30
2018-08-03T08:32:19.441Z,2.00
2018-08-03T08:34:46.854Z,2.00
2018-08-03T08:37:14.256Z,2.27
2018-08-03T08:39:41.718Z,2.00
2018-08-03T08:42:09.143Z,2.47
2018-08-03T08:44:36.571Z,2.00
2018-08-03T08:47:04.018Z,1.70
2018-08-03T08:49:31.437Z,1.80
2018-08-03T08:51:58.885Z,1.90
2018-08-03T08:54:26.341Z,1.80
2018-08-03T08:56:53.740Z,1.87
2018-08-03T08:59:21.190Z,1.90
2018-08-03T09:01:48.576Z,1.80
2018-08-03T09:04:16.030Z,1.60
2018-08-03T09:06:43.473Z,1.47
2018-08-03T09:09:11.346Z,1.80
2018-08-03T09:11:39.110Z,1.60
2018-08-03T09:14:06.552Z,1.53
2018-08-03T09:16:34.005Z,1.60
2018-08-03T09:19:01.450Z,1.60
2018-08-03T09:21:28.915Z,1.70
2018-08-03T09:23:56.334Z,1.57
2018-08-03T09:26:23.734Z,1.67
2018-08-03T09:28:51.929Z,1.60
2018-08-03T09:31:19.340Z,1.60
2018-08-03T09:33:46.765Z,1.77
2018-08-03T09:36:14.157Z,1.90
2018-08-03T09:38:41.623Z,1.77
2018-08-03T09:41:09.032Z,1.70
2018-08-03T09:43:36.440Z,1.63
2018-08-03T09:46:03.919Z,1.57
2018-08-03T09:48:31.328Z,1.90
2018-08-03T09:50:58.752Z,1.70
2018-08-03T09:53:26.177Z,1.70
2018-08-03T09:55:53.585Z,3.00
2018-08-03T09:58:20.996Z,1.67
2018-08-03T10:00:54.050Z,1.60
2018-08-03T10:03:21.470Z,1.50
2018-08-03T10:05:48.876Z,1.70
2018-08-03T10:08:16.269Z,1.50
2018-08-03T10:10:43.685Z,1.80
2018-08-03T10:13:11.072Z,1.60
2018-08-03T10:15:38.491Z,2.03
2018-08-03T10:18:05.903Z,1.70
2018-08-03T10:20:33.281Z,1.70
2018-08-03T10:23:00.730Z,1.73
2018-08-03T10:25:28.192Z,1.60
2018-08-03T10:27:55.625Z,1.53
2018-08-03T10:30:23.194Z,1.50
2018-08-03T10:32:50.619Z,1.60
2018-08-03T10:35:18.041Z,1.50
2018-08-03T10:37:45.444Z,1.73
2018-08-03T10:40:12.850Z,1.40
2018-08-03T10:42:40.278Z,1.60
2018-08-03T10:45:07.727Z,1.80
2018-08-03T10:47:35.140Z,1.70
2018-08-03T10:50:02.559Z,1.80
2018-08-03T10:52:29.965Z,1.90
2018-08-03T10:54:57.344Z,1.57
2018-08-03T10:57:24.758Z,1.63
2018-08-03T10:59:52.164Z,1.70
2018-08-03T11:02:19.638Z,1.47
2018-08-03T11:04:47.065Z,1.50
2018-08-03T11:07:14.468Z,1.83
2018-08-03T11:09:41.870Z,1.70
2018-08-03T11:12:09.292Z,1.70
2018-08-03T11:14:36.789Z,1.60
2018-08-03T11:17:04.215Z,1.87
2018-08-03T11:19:31.632Z,1.60
2018-08-03T11:21:59.069Z,1.50
2018-08-03T11:24:26.459Z,1.70
2018-08-03T11:26:53.900Z,1.70
2018-08-03T11:29:21.300Z,1.90
2018-08-03T11:31:48.698Z,1.47
2018-08-03T11:34:16.101Z,1.60
2018-08-03T11:36:43.476Z,1.80
2018-08-03T11:39:11.617Z,1.80
2018-08-03T11:41:39.044Z,1.60
2018-08-03T11:44:06.727Z,1.63
2018-08-03T11:46:34.175Z,1.67
2018-08-03T11:49:01.602Z,1.70
2018-08-03T11:51:28.984Z,1.90
2018-08-03T11:53:56.410Z,1.50
2018-08-03T11:56:23.825Z,1.70
2018-08-03T11:58:51.453Z,1.87
2018-08-03T12:01:18.890Z,1.60
2018-08-03T12:03:46.322Z,1.80
2018-08-03T12:06:13.735Z,1.67
2018-08-03T12:08:41.172Z,1.63
2018-08-03T12:11:08.601Z,1.60
2018-08-03T12:13:36.036Z,1.77
2018-08-03T12:16:03.445Z,1.50
2018-08-03T12:18:30.857Z,1.50
2018-08-03T12:20:58.295Z,1.60
2018-08-03T12:23:25.756Z,1.50
2018-08-03T12:25:53.139Z,1.70
2018-08-03T12:28:20.552Z,1.70
2018-08-03T12:30:47.985Z,1.70
2018-08-03T12:33:15.415Z,1.50
2018-08-03T12:35:42.817Z,1.50
2018-08-03T12:38:10.228Z,1.50
2018-08-03T12:40:37.612Z,1.50
2018-08-03T12:43:05.045Z,1.50
2018-08-03T12:45:34.146Z,1.53
2018-08-03T12:47:59.868Z,1.50
2018-08-03T12:50:27.307Z,1.63
2018-08-03T12:52:54.841Z,1.73
2018-08-03T12:55:22.281Z,1.70
2018-08-03T12:57:49.688Z,1.90
2018-08-03T13:00:17.102Z,1.37
2018-08-03T13:02:44.581Z,1.67
2018-08-03T13:05:11.980Z,1.80
2018-08-03T13:07:39.636Z,1.60
2018-08-03T13:10:07.153Z,1.50
2018-08-03T13:12:34.579Z,1.70
2018-08-03T13:15:02.186Z,1.40
2018-08-03T13:17:29.623Z,1.50
2018-08-03T13:19:57.004Z,1.57
2018-08-03T13:22:24.412Z,1.40
2018-08-03T13:24:52.423Z,1.50
2018-08-03T13:27:20.192Z,1.40
2018-08-03T13:29:47.566Z,1.50
2018-08-03T13:32:15.004Z,1.67
2018-08-03T13:34:43.254Z,1.67
2018-08-03T13:37:10.649Z,1.80
2018-08-03T13:39:38.083Z,1.60
2018-08-03T13:42:05.509Z,1.57
2018-08-03T13:44:32.956Z,1.60
2018-08-03T13:47:00.386Z,1.47
2018-08-03T13:49:27.807Z,1.70
2018-08-03T13:51:55.229Z,1.60
2018-08-03T13:54:22.660Z,1.60
2018-08-03T13:56:50.093Z,1.60
2018-08-03T13:59:17.489Z,1.70
2018-08-03T14:01:56.424Z,1.50
2018-08-03T14:04:23.953Z,1.30
2018-08-03T14:06:51.367Z,1.53
2018-08-03T14:09:18.801Z,1.70
2018-08-03T14:11:46.221Z,1.40
2018-08-03T14:14:13.642Z,1.50
2018-08-03T14:16:41.065Z,1.70
2018-08-03T14:19:08.490Z,1.50
2018-08-03T14:21:35.893Z,1.70
2018-08-03T14:24:03.378Z,1.50
2018-08-03T14:26:31.726Z,1.40
2018-08-03T14:28:59.128Z,1.40
2018-08-03T14:31:26.616Z,1.37
2018-08-03T14:33:53.987Z,1.30
2018-08-03T14:36:21.416Z,1.47
2018-08-03T14:38:48.825Z,1.40
2018-08-03T14:41:16.282Z,1.50
2018-08-03T14:43:43.702Z,1.33
2018-08-03T14:46:11.174Z,1.30
2018-08-03T14:48:38.625Z,1.60
2018-08-03T14:51:06.260Z,1.47
2018-08-03T14:53:33.672Z,1.50
2018-08-03T14:56:01.096Z,1.70
2018-08-03T14:58:28.526Z,1.87
2018-08-03T15:00:55.899Z,1.43
2018-08-03T15:03:23.336Z,1.60
2018-08-03T15:05:50.792Z,1.63
2018-08-03T15:08:18.235Z,1.50
2018-08-03T15:10:45.664Z,1.43
2018-08-03T15:13:13.085Z,1.50
2018-08-03T15:15:40.480Z,1.70
2018-08-03T15:18:07.969Z,1.50
2018-08-03T15:20:35.403Z,1.33
2018-08-03T15:23:02.825Z,1.60
2018-08-03T15:25:30.267Z,1.20
2018-08-03T15:27:57.690Z,1.23
2018-08-03T15:30:25.113Z,1.30
2018-08-03T15:32:52.574Z,1.70
2018-08-03T15:35:19.993Z,1.50
2018-08-03T15:37:47.396Z,1.40
2018-08-03T15:40:14.801Z,1.60
2018-08-03T15:42:42.252Z,1.60
2018-08-03T15:45:09.673Z,1.33
2018-08-03T15:47:37.316Z,1.47
2018-08-03T15:50:04.904Z,1.57
2018-08-03T15:52:32.353Z,1.53
2018-08-03T15:54:59.736Z,1.40
2018-08-03T15:57:27.140Z,1.40
2018-08-03T15:59:54.569Z,1.53
2018-08-03T16:02:21.985Z,1.47
2018-08-03T16:04:49.389Z,1.63
2018-08-03T16:07:16.862Z,1.60
2018-08-03T16:09:44.290Z,1.50
2018-08-03T16:12:11.716Z,1.60
2018-08-03T16:14:39.124Z,1.50
2018-08-03T16:17:06.566Z,1.50
2018-08-03T16:19:33.972Z,1.60
2018-08-03T16:22:01.388Z,1.33
2018-08-03T16:24:28.817Z,1.60
2018-08-03T16:26:56.435Z,1.70
2018-08-03T16:29:23.902Z,1.30
2018-08-03T16:31:51.317Z,1.60
2018-08-03T16:34:18.729Z,1.70
2018-08-03T16:36:46.142Z,1.57
2018-08-03T16:39:13.591Z,1.37
2018-08-03T16:41:41.025Z,1.60
2018-08-03T16:44:08.474Z,1.50
2018-08-03T16:46:35.977Z,1.77
2018-08-03T16:49:03.437Z,1.60
2018-08-03T16:51:30.914Z,1.50
2018-08-03T16:53:58.370Z,1.70
2018-08-03T16:56:25.797Z,1.60
2018-08-03T16:58:53.225Z,1.53
2018-08-03T17:01:20.645Z,1.47
2018-08-03T17:03:48.293Z,1.60
2018-08-03T17:06:15.712Z,1.77
2018-08-03T17:08:43.103Z,1.57
2018-08-03T17:11:10.530Z,1.57
2018-08-03T17:13:38.134Z,1.57
2018-08-03T17:16:06.181Z,1.57
2018-08-03T17:18:33.613Z,1.83
2018-08-03T17:21:00.996Z,1.80
2018-08-03T17:23:28.466Z,1.60
2018-08-03T17:25:55.889Z,1.80
2018-08-03T17:28:23.303Z,1.73
2018-08-03T17:30:51.669Z,1.80
2018-08-03T17:33:19.124Z,1.70
2018-08-03T17:35:46.512Z,2.00
2018-08-03T17:38:13.921Z,1.70
2018-08-03T17:40:41.353Z,1.77
2018-08-03T17:43:08.774Z,1.70
2018-08-03T17:45:36.219Z,1.70
2018-08-03T17:48:03.645Z,1.70
2018-08-03T17:50:31.098Z,1.77
2018-08-03T17:52:58.559Z,1.70
2018-08-03T17:55:25.948Z,1.73
2018-08-03T17:57:53.400Z,1.60
2018-08-03T18:00:20.821Z,1.90
2018-08-03T18:02:48.279Z,1.70
2018-08-03T18:05:15.670Z,1.70
2018-08-03T18:07:43.060Z,1.70
2018-08-03T18:10:10.493Z,1.90
2018-08-03T18:12:37.900Z,1.60
2018-08-03T18:15:06.109Z,1.90
2018-08-03T18:17:33.533Z,1.77
2018-08-03T18:20:00.957Z,2.07
2018-08-03T18:22:28.370Z,1.60
2018-08-03T18:24:55.801Z,1.50
2018-08-03T18:27:23.234Z,1.70
2018-08-03T18:29:50.682Z,1.80
2018-08-03T18:32:18.069Z,1.90
2018-08-03T18:34:45.562Z,1.70
2018-08-03T18:37:12.979Z,1.50
2018-08-03T18:39:40.437Z,1.80
2018-08-03T18:42:07.868Z,1.80
2018-08-03T18:44:35.269Z,1.60
2018-08-03T18:47:02.684Z,1.70
2018-08-03T18:49:30.097Z,1.73
2018-08-03T18:51:57.513Z,1.80
2018-08-03T18:54:24.962Z,1.60
2018-08-03T18:56:52.466Z,1.70
2018-08-03T18:59:19.914Z,2.00
2018-08-03T19:01:47.337Z,1.93
2018-08-03T19:04:14.762Z,1.90
2018-08-03T19:06:42.164Z,1.90
2018-08-03T19:09:09.769Z,1.70
2018-08-03T19:11:37.264Z,2.03
2018-08-03T19:14:04.687Z,2.30
2018-08-03T19:16:32.120Z,1.80
2018-08-03T19:18:59.542Z,1.90
2018-08-03T19:21:26.948Z,2.07
2018-08-03T19:23:54.392Z,1.93
2018-08-03T19:26:21.789Z,2.07
2018-08-03T19:28:49.197Z,2.07
2018-08-03T19:31:16.616Z,2.00
2018-08-03T19:33:44.022Z,2.20
2018-08-03T19:36:11.481Z,2.00
2018-08-03T19:38:38.894Z,1.97
2018-08-03T19:41:06.337Z,2.10
2018-08-03T19:43:33.717Z,2.13
2018-08-03T19:46:01.100Z,2.00
2018-08-03T19:48:28.509Z,2.30
2018-08-03T19:50:55.931Z,2.17
2018-08-03T19:53:23.333Z,2.00
2018-08-03T19:55:50.718Z,2.33
2018-08-03T19:58:18.158Z,2.23
2018-08-03T20:00:45.603Z,2.13
2018-08-03T20:03:13.081Z,1.93
2018-08-03T20:05:40.473Z,2.00
2018-08-03T20:08:07.906Z,2.20
2018-08-03T20:10:35.337Z,2.50
2018-08-03T20:13:02.826Z,2.10
2018-08-03T20:15:30.243Z,2.07
2018-08-03T20:17:57.713Z,2.40
2018-08-03T20:20:25.140Z,2.20
2018-08-03T20:22:52.576Z,2.40
2018-08-03T20:25:20.010Z,2.40
2018-08-03T22:43:20.720Z,3.17
2018-08-03T23:27:44.087Z,3.63
2018-08-03T23:59:09.056Z,3.90
